sensor_id;sensor_type;location;lat;lon;timestamp;pressure;altitude;pressure_sealevel;temperature;humidity
21826;BME280;11075;47.944;11.776;2023-07-30T00:00:35;94542.41;;;6.40;100.00
21826;BME280;11075;47.944;11.776;2023-07-30T00:03:02;94538.25;;;6.25;100.00
21826;BME280;11075;47.944;11.776;2023-07-30T00:05:29;94538.94;;;6.48;100.00
21826;BME280;11075;47.944;11.776;2023-07-30T00:07:56;94538.13;;;6.91;100.00
21826;BME280;11075;47.944;11.776;2023-07-30T00:10:22;94531.19;;;6.90;98.24
21826;BME280;11075;47.944;11.776;2023-07-30T00:12:49;94542.88;;;6.77;100.00
21826;BME280;11075;47.944;11.776;2023-07-30T00:15:16;94551.84;;;6.46;100.00
21826;BME280;11075;47.944;11.776;2023-07-30T00:17:43;94545.66;;;6.20;100.00
21826;BME280;11075;47.944;11.776;2023-07-30T00:20:10;94545.88;;;6.67;98.42
21826;BME280;11075;47.944;11.776;2023-07-30T00:22:37;94552.63;;;6.81;96.70
21826;BME280;11075;47.944;11.776;2023-07-30T00:25:04;94547.91;;;6.87;97.71
21826;BME280;11075;47.944;11.776;2023-07-30T00:27:31;94555.59;;;6.28;100.00
21826;BME280;11075;47.944;11.776;2023-07-30T00:29:58;94547.28;;;6.47;100.00
21826;BME280;11075;47.944;11.776;2023-07-30T00:32:25;94547.44;;;6.85;95.40
21826;BME280;11075;47.944;11.776;2023-07-30T00:34:52;94555.59;;;6.28;97.92
21826;BME280;11075;47.944;11.776;2023-07-30T00:37:18;94553.91;;;6.84;95.71
21826;BME280;11075;47.944;11.776;2023-07-30T00:39:45;94550.56;;;7.04;92.85
21826;BME280;11075;47.944;11.776;2023-07-30T00:42:12;94563.00;;;7.00;92.32
21826;BME280;11075;47.944;11.776;2023-07-30T00:44:40;94559.09;;;6.80;95.01
21826;BME280;11075;47.944;11.776;2023-07-30T00:47:07;94557.84;;;6.78;95.45
21826;BME280;11075;47.944;11.776;2023-07-30T00:49:35;94558.44;;;7.09;92.40
21826;BME280;11075;47.944;11.776;2023-07-30T00:52:03;94562.84;;;7.22;92.19
21826;BME280;11075;47.944;11.776;2023-07-30T00:54:30;94559.09;;;6.89;93.84
21826;BME280;11075;47.944;11.776;2023-07-30T00:56:57;94557.66;;;7.00;95.58
21826;BME280;11075;47.944;11.776;2023-07-30T00:59:25;94549.59;;;7.09;94.76
21826;BME280;11075;47.944;11.776;2023-07-30T01:01:52;94542.94;;;7.41;91.56
21826;BME280;11075;47.944;11.776;2023-07-30T01:04:19;94544.22;;;7.17;93.43
21826;BME280;11075;47.944;11.776;2023-07-30T01:06:46;94533.69;;;7.12;93.43
21826;BME280;11075;47.944;11.776;2023-07-30T01:09:13;94537.75;;;7.36;93.04
21826;BME280;11075;47.944;11.776;2023-07-30T01:11:41;94526.41;;;7.21;94.56
21826;BME280;11075;47.944;11.776;2023-07-30T01:14:09;94527.28;;;6.44;100.00
21826;BME280;11075;47.944;11.776;2023-07-30T01:16:36;94526.44;;;7.04;95.25
21826;BME280;11075;47.944;11.776;2023-07-30T01:19:05;94528.78;;;7.32;92.29
21826;BME280;11075;47.944;11.776;2023-07-30T01:21:36;94536.56;;;6.81;96.92
21826;BME280;11075;47.944;11.776;2023-07-30T01:24:04;94537.47;;;6.25;100.00
21826;BME280;11075;47.944;11.776;2023-07-30T01:26:37;94537.97;;;6.96;96.30
21826;BME280;11075;47.944;11.776;2023-07-30T01:29:11;94535.75;;;6.98;94.91
21826;BME280;11075;47.944;11.776;2023-07-30T01:31:40;94531.47;;;7.23;92.36
21826;BME280;11075;47.944;11.776;2023-07-30T01:34:09;94528.38;;;6.69;97.90
21826;BME280;11075;47.944;11.776;2023-07-30T01:36:38;94537.84;;;6.67;96.80
21826;BME280;11075;47.944;11.776;2023-07-30T01:39:09;94539.72;;;6.83;94.82
21826;BME280;11075;47.944;11.776;2023-07-30T01:41:36;94538.47;;;6.55;98.35
21826;BME280;11075;47.944;11.776;2023-07-30T01:44:03;94547.22;;;6.21;100.00
21826;BME280;11075;47.944;11.776;2023-07-30T01:46:30;94548.41;;;6.54;98.49
21826;BME280;11075;47.944;11.776;2023-07-30T01:48:57;94547.13;;;6.60;97.67
21826;BME280;11075;47.944;11.776;2023-07-30T01:51:23;94543.97;;;6.67;97.65
21826;BME280;11075;47.944;11.776;2023-07-30T01:53:51;94544.59;;;6.81;96.45
21826;BME280;11075;47.944;11.776;2023-07-30T01:56:17;94542.06;;;7.02;93.81
21826;BME280;11075;47.944;11.776;2023-07-30T01:58:44;94550.59;;;6.78;95.78
21826;BME280;11075;47.944;11.776;2023-07-30T02:01:11;94548.88;;;6.65;96.83
21826;BME280;11075;47.944;11.776;2023-07-30T02:03:38;94546.63;;;7.02;94.43
21826;BME280;11075;47.944;11.776;2023-07-30T02:06:06;94548.72;;;6.70;97.61
21826;BME280;11075;47.944;11.776;2023-07-30T02:08:33;94547.91;;;6.87;96.34
21826;BME280;11075;47.944;11.776;2023-07-30T02:11:00;94549.94;;;6.99;95.15
21826;BME280;11075;47.944;11.776;2023-07-30T02:13:27;94545.66;;;7.15;94.49
21826;BME280;11075;47.944;11.776;2023-07-30T02:15:54;94547.44;;;6.68;98.92
21826;BME280;11075;47.944;11.776;2023-07-30T02:18:20;94540.03;;;6.90;98.37
21826;BME280;11075;47.944;11.776;2023-07-30T02:20:49;94552.94;;;6.88;98.39
21826;BME280;11075;47.944;11.776;2023-07-30T02:23:15;94549.66;;;6.74;99.44
21826;BME280;11075;47.944;11.776;2023-07-30T02:25:43;94551.06;;;6.63;100.00
21826;BME280;11075;47.944;11.776;2023-07-30T02:28:10;94547.59;;;6.71;100.00
21826;BME280;11075;47.944;11.776;2023-07-30T02:30:40;94538.75;;;7.05;96.98
21826;BME280;11075;47.944;11.776;2023-07-30T02:33:07;94534.06;;;6.59;100.00
21826;BME280;11075;47.944;11.776;2023-07-30T02:35:34;94537.22;;;6.70;100.00
21826;BME280;11075;47.944;11.776;2023-07-30T02:38:01;94535.94;;;6.76;100.00
21826;BME280;11075;47.944;11.776;2023-07-30T02:40:28;94538.00;;;6.79;100.00
21826;BME280;11075;47.944;11.776;2023-07-30T02:42:54;94538.28;;;6.86;100.00
21826;BME280;11075;47.944;11.776;2023-07-30T02:45:21;94540.38;;;6.63;100.00
21826;BME280;11075;47.944;11.776;2023-07-30T02:47:48;94534.06;;;6.76;100.00
21826;BME280;11075;47.944;11.776;2023-07-30T02:50:15;94531.84;;;6.44;100.00
21826;BME280;11075;47.944;11.776;2023-07-30T02:52:46;94532.16;;;6.68;100.00
21826;BME280;11075;47.944;11.776;2023-07-30T02:55:13;94536.84;;;6.19;100.00
21826;BME280;11075;47.944;11.776;2023-07-30T02:57:40;94529.44;;;6.16;100.00
21826;BME280;11075;47.944;11.776;2023-07-30T03:00:07;94532.91;;;6.17;100.00
21826;BME280;11075;47.944;11.776;2023-07-30T03:02:35;94532.84;;;5.91;100.00
21826;BME280;11075;47.944;11.776;2023-07-30T03:05:02;94525.84;;;6.29;100.00
21826;BME280;11075;47.944;11.776;2023-07-30T03:07:30;94525.72;;;6.43;100.00
21826;BME280;11075;47.944;11.776;2023-07-30T03:09:57;94529.03;;;6.66;100.00
21826;BME280;11075;47.944;11.776;2023-07-30T03:12:24;94522.56;;;6.58;100.00
21826;BME280;11075;47.944;11.776;2023-07-30T03:14:50;94519.56;;;6.43;100.00
21826;BME280;11075;47.944;11.776;2023-07-30T03:17:17;94528.81;;;6.97;98.75
21826;BME280;11075;47.944;11.776;2023-07-30T03:19:44;94529.94;;;6.96;97.20
21826;BME280;11075;47.944;11.776;2023-07-30T03:22:11;94529.47;;;6.94;97.77
21826;BME280;11075;47.944;11.776;2023-07-30T03:24:37;94530.44;;;6.46;100.00
21826;BME280;11075;47.944;11.776;2023-07-30T03:27:05;94538.31;;;6.43;100.00
21826;BME280;11075;47.944;11.776;2023-07-30T03:29:32;94540.69;;;6.61;100.00
21826;BME280;11075;47.944;11.776;2023-07-30T03:31:59;94530.13;;;6.39;100.00
21826;BME280;11075;47.944;11.776;2023-07-30T03:34:25;94544.94;;;6.62;100.00
21826;BME280;11075;47.944;11.776;2023-07-30T03:36:52;94540.94;;;6.34;100.00
21826;BME280;11075;47.944;11.776;2023-07-30T03:39:19;94540.38;;;6.63;100.00
21826;BME280;11075;47.944;11.776;2023-07-30T03:41:46;94542.88;;;6.68;98.15
21826;BME280;11075;47.944;11.776;2023-07-30T03:44:13;94544.13;;;6.45;99.73
21826;BME280;11075;47.944;11.776;2023-07-30T03:46:39;94547.91;;;6.87;98.23
21826;BME280;11075;47.944;11.776;2023-07-30T03:49:06;94545.56;;;6.51;100.00
21826;BME280;11075;47.944;11.776;2023-07-30T03:51:33;94553.91;;;6.67;100.00
21826;BME280;11075;47.944;11.776;2023-07-30T03:54:00;94552.31;;;6.74;100.00
21826;BME280;11075;47.944;11.776;2023-07-30T03:56:27;94560.53;;;6.69;99.18
21826;BME280;11075;47.944;11.776;2023-07-30T03:58:54;94563.31;;;6.38;100.00
21826;BME280;11075;47.944;11.776;2023-07-30T04:01:21;94569.16;;;6.49;100.00
21826;BME280;11075;47.944;11.776;2023-07-30T04:03:48;94575.16;;;6.89;99.47
21826;BME280;11075;47.944;11.776;2023-07-30T04:06:15;94573.66;;;6.14;100.00
21826;BME280;11075;47.944;11.776;2023-07-30T04:08:42;94567.28;;;6.67;100.00
21826;BME280;11075;47.944;11.776;2023-07-30T04:11:09;94569.63;;;6.94;98.42
21826;BME280;11075;47.944;11.776;2023-07-30T04:13:35;94570.75;;;6.76;100.00
21826;BME280;11075;47.944;11.776;2023-07-30T04:16:04;94573.25;;;6.98;97.71
21826;BME280;11075;47.944;11.776;2023-07-30T04:18:32;94577.84;;;6.54;100.00
21826;BME280;11075;47.944;11.776;2023-07-30T04:20:59;94575.78;;;6.86;96.97
21826;BME280;11075;47.944;11.776;2023-07-30T04:23:26;94582.25;;;6.50;98.17
21826;BME280;11075;47.944;11.776;2023-07-30T04:25:53;94578.28;;;7.34;92.27
21826;BME280;11075;47.944;11.776;2023-07-30T04:28:19;94581.31;;;6.72;98.90
21826;BME280;11075;47.944;11.776;2023-07-30T04:30:46;94584.47;;;6.74;100.00
21826;BME280;11075;47.944;11.776;2023-07-30T04:33:14;94585.88;;;6.89;99.09
21826;BME280;11075;47.944;11.776;2023-07-30T04:35:44;94585.81;;;7.41;92.19
21826;BME280;11075;47.944;11.776;2023-07-30T04:38:11;94590.59;;;7.09;93.69
21826;BME280;11075;47.944;11.776;2023-07-30T04:40:39;94588.72;;;7.74;89.48
21826;BME280;11075;47.944;11.776;2023-07-30T04:43:06;94606.16;;;7.88;86.82
21826;BME280;11075;47.944;11.776;2023-07-30T04:45:35;94604.19;;;7.68;86.39
21826;BME280;11075;47.944;11.776;2023-07-30T04:48:02;94605.69;;;7.40;92.18
21826;BME280;11075;47.944;11.776;2023-07-30T04:50:29;94622.13;;;7.85;87.57
21826;BME280;11075;47.944;11.776;2023-07-30T04:52:57;94617.97;;;7.96;86.94
21826;BME280;11075;47.944;11.776;2023-07-30T04:55:25;94614.97;;;8.06;86.84
21826;BME280;11075;47.944;11.776;2023-07-30T04:57:52;94618.19;;;7.82;88.12
21826;BME280;11075;47.944;11.776;2023-07-30T05:00:19;94623.25;;;7.75;87.03
21826;BME280;11075;47.944;11.776;2023-07-30T05:02:46;94628.81;;;8.17;84.46
21826;BME280;11075;47.944;11.776;2023-07-30T05:05:13;94630.94;;;8.32;84.99
21826;BME280;11075;47.944;11.776;2023-07-30T05:07:39;94633.13;;;7.02;94.99
21826;BME280;11075;47.944;11.776;2023-07-30T05:10:07;94632.41;;;7.74;92.61
21826;BME280;11075;47.944;11.776;2023-07-30T05:12:37;94629.81;;;8.04;89.20
21826;BME280;11075;47.944;11.776;2023-07-30T05:15:04;94632.94;;;7.59;90.60
21826;BME280;11075;47.944;11.776;2023-07-30T05:17:31;94636.72;;;7.58;91.80
21826;BME280;11075;47.944;11.776;2023-07-30T05:19:58;94640.06;;;7.46;89.10
21826;BME280;11075;47.944;11.776;2023-07-30T05:22:25;94628.91;;;7.82;85.30
21826;BME280;11075;47.944;11.776;2023-07-30T05:24:52;94638.66;;;7.96;87.73
21826;BME280;11075;47.944;11.776;2023-07-30T05:27:18;94632.69;;;8.78;82.19
21826;BME280;11075;47.944;11.776;2023-07-30T05:29:45;94640.00;;;8.99;80.39
21826;BME280;11075;47.944;11.776;2023-07-30T05:32:15;94634.22;;;8.88;78.95
21826;BME280;11075;47.944;11.776;2023-07-30T05:34:41;94632.41;;;8.80;78.33
21826;BME280;11075;47.944;11.776;2023-07-30T05:37:08;94633.75;;;9.28;79.27
21826;BME280;11075;47.944;11.776;2023-07-30T05:39:35;94636.91;;;9.30;80.50
21826;BME280;11075;47.944;11.776;2023-07-30T05:42:02;94645.69;;;9.18;76.84
21826;BME280;11075;47.944;11.776;2023-07-30T05:44:29;94643.75;;;9.60;73.93
21826;BME280;11075;47.944;11.776;2023-07-30T05:46:56;94633.38;;;9.50;76.33
21826;BME280;11075;47.944;11.776;2023-07-30T05:49:23;94640.91;;;9.90;74.66
21826;BME280;11075;47.944;11.776;2023-07-30T05:51:50;94633.25;;;9.79;74.45
21826;BME280;11075;47.944;11.776;2023-07-30T05:54:17;94644.31;;;10.60;70.01
21826;BME280;11075;47.944;11.776;2023-07-30T05:56:44;94652.97;;;9.71;72.78
21826;BME280;11075;47.944;11.776;2023-07-30T05:59:11;94641.41;;;10.40;68.99
21826;BME280;11075;47.944;11.776;2023-07-30T06:01:38;94634.00;;;10.50;66.55
21826;BME280;11075;47.944;11.776;2023-07-30T06:04:05;94649.75;;;9.90;70.36
21826;BME280;11075;47.944;11.776;2023-07-30T06:06:32;94643.84;;;10.09;69.35
21826;BME280;11075;47.944;11.776;2023-07-30T06:08:59;94652.50;;;9.36;73.08
21826;BME280;11075;47.944;11.776;2023-07-30T06:11:25;94644.63;;;10.83;69.67
21826;BME280;11075;47.944;11.776;2023-07-30T06:13:53;94640.84;;;10.59;69.28
21826;BME280;11075;47.944;11.776;2023-07-30T06:16:19;94645.72;;;11.34;63.14
21826;BME280;11075;47.944;11.776;2023-07-30T06:18:47;94642.63;;;11.20;65.98
21826;BME280;11075;47.944;11.776;2023-07-30T06:21:14;94634.00;;;11.42;65.87
21826;BME280;11075;47.944;11.776;2023-07-30T06:23:40;94631.13;;;10.95;66.19
21826;BME280;11075;47.944;11.776;2023-07-30T06:26:07;94646.91;;;10.56;67.93
21826;BME280;11075;47.944;11.776;2023-07-30T06:28:34;94638.09;;;10.84;64.37
21826;BME280;11075;47.944;11.776;2023-07-30T06:31:02;94632.31;;;10.45;63.27
21826;BME280;11075;47.944;11.776;2023-07-30T06:33:29;94639.81;;;11.28;63.78
21826;BME280;11075;47.944;11.776;2023-07-30T06:35:58;94645.06;;;10.85;62.74
21826;BME280;11075;47.944;11.776;2023-07-30T06:38:25;94643.16;;;11.81;58.86
21826;BME280;11075;47.944;11.776;2023-07-30T06:40:52;94636.66;;;11.98;59.26
21826;BME280;11075;47.944;11.776;2023-07-30T06:43:19;94633.19;;;11.26;58.41
21826;BME280;11075;47.944;11.776;2023-07-30T06:45:46;94634.34;;;11.68;59.15
21826;BME280;11075;47.944;11.776;2023-07-30T06:48:13;94627.88;;;12.48;58.54
21826;BME280;11075;47.944;11.776;2023-07-30T06:50:40;94638.53;;;11.38;60.77
21826;BME280;11075;47.944;11.776;2023-07-30T06:53:07;94638.47;;;10.70;65.99
21826;BME280;11075;47.944;11.776;2023-07-30T06:55:33;94638.38;;;11.47;62.11
21826;BME280;11075;47.944;11.776;2023-07-30T06:58:00;94639.19;;;10.95;60.13
21826;BME280;11075;47.944;11.776;2023-07-30T07:00:27;94643.88;;;10.45;62.54
21826;BME280;11075;47.944;11.776;2023-07-30T07:02:54;94640.00;;;10.83;60.12
21826;BME280;11075;47.944;11.776;2023-07-30T07:05:21;94637.78;;;10.73;63.44
21826;BME280;11075;47.944;11.776;2023-07-30T07:07:48;94639.06;;;11.16;62.13
21826;BME280;11075;47.944;11.776;2023-07-30T07:10:15;94641.28;;;12.29;57.10
21826;BME280;11075;47.944;11.776;2023-07-30T07:12:42;94644.63;;;12.73;54.74
21826;BME280;11075;47.944;11.776;2023-07-30T07:15:09;94644.16;;;12.52;57.20
21826;BME280;11075;47.944;11.776;2023-07-30T07:17:36;94640.31;;;12.88;57.78
21826;BME280;11075;47.944;11.776;2023-07-30T07:20:03;94650.78;;;12.07;57.75
21826;BME280;11075;47.944;11.776;2023-07-30T07:22:31;94642.50;;;11.56;60.35
21826;BME280;11075;47.944;11.776;2023-07-30T07:24:58;94648.97;;;11.39;61.10
21826;BME280;11075;47.944;11.776;2023-07-30T07:27:25;94641.59;;;12.75;56.26
21826;BME280;11075;47.944;11.776;2023-07-30T07:29:52;94641.44;;;12.20;54.69
21826;BME280;11075;47.944;11.776;2023-07-30T07:32:19;94643.72;;;12.02;55.67
21826;BME280;11075;47.944;11.776;2023-07-30T07:34:49;94652.84;;;11.98;53.07
21826;BME280;11075;47.944;11.776;2023-07-30T07:37:17;94647.25;;;11.19;57.84
21826;BME280;11075;47.944;11.776;2023-07-30T07:39:45;94640.53;;;11.69;56.75
21826;BME280;11075;47.944;11.776;2023-07-30T07:42:12;94652.53;;;12.47;55.11
21826;BME280;11075;47.944;11.776;2023-07-30T07:44:39;94654.28;;;13.25;50.62
21826;BME280;11075;47.944;11.776;2023-07-30T07:47:06;94646.31;;;11.55;57.54
21826;BME280;11075;47.944;11.776;2023-07-30T07:49:33;94656.78;;;12.00;52.35
21826;BME280;11075;47.944;11.776;2023-07-30T07:51:59;94654.34;;;11.95;53.20
21826;BME280;11075;47.944;11.776;2023-07-30T07:54:26;94656.88;;;12.04;54.04
21826;BME280;11075;47.944;11.776;2023-07-30T07:56:53;94648.56;;;11.53;55.08
21826;BME280;11075;47.944;11.776;2023-07-30T07:59:20;94662.66;;;11.47;57.00
21826;BME280;11075;47.944;11.776;2023-07-30T08:01:47;94678.75;;;10.78;58.01
21826;BME280;11075;47.944;11.776;2023-07-30T08:04:13;94657.41;;;13.08;54.51
21826;BME280;11075;47.944;11.776;2023-07-30T08:06:40;94656.59;;;13.84;51.32
21826;BME280;11075;47.944;11.776;2023-07-30T08:09:07;94661.09;;;12.99;49.76
21826;BME280;11075;47.944;11.776;2023-07-30T08:11:34;94653.38;;;12.19;53.11
21826;BME280;11075;47.944;11.776;2023-07-30T08:14:01;94660.91;;;12.42;51.78
21826;BME280;11075;47.944;11.776;2023-07-30T08:16:28;94668.69;;;11.56;53.60
21826;BME280;11075;47.944;11.776;2023-07-30T08:18:55;94662.31;;;11.76;55.56
21826;BME280;11075;47.944;11.776;2023-07-30T08:21:22;94651.00;;;13.54;55.28
21826;BME280;11075;47.944;11.776;2023-07-30T08:23:49;94653.13;;;12.91;53.90
21826;BME280;11075;47.944;11.776;2023-07-30T08:26:16;94660.03;;;12.37;56.05
21826;BME280;11075;47.944;11.776;2023-07-30T08:28:43;94662.53;;;12.30;54.76
21826;BME280;11075;47.944;11.776;2023-07-30T08:31:09;94663.19;;;11.24;56.18
21826;BME280;11075;47.944;11.776;2023-07-30T08:33:36;94667.44;;;10.61;58.76
21826;BME280;11075;47.944;11.776;2023-07-30T08:36:03;94655.78;;;12.87;55.39
21826;BME280;11075;47.944;11.776;2023-07-30T08:38:30;94649.28;;;13.85;47.30
21826;BME280;11075;47.944;11.776;2023-07-30T08:40:57;94646.03;;;14.93;48.71
21826;BME280;11075;47.944;11.776;2023-07-30T08:43:24;94636.50;;;13.85;49.05
21826;BME280;11075;47.944;11.776;2023-07-30T08:45:51;94633.84;;;13.66;48.77
21826;BME280;11075;47.944;11.776;2023-07-30T08:48:18;94641.75;;;13.36;50.45
21826;BME280;11075;47.944;11.776;2023-07-30T08:50:45;94644.50;;;12.03;51.62
21826;BME280;11075;47.944;11.776;2023-07-30T08:53:12;94638.84;;;10.96;54.48
21826;BME280;11075;47.944;11.776;2023-07-30T08:55:41;94638.19;;;12.78;52.13
21826;BME280;11075;47.944;11.776;2023-07-30T08:58:09;94644.38;;;15.15;44.92
21826;BME280;11075;47.944;11.776;2023-07-30T09:00:38;94633.63;;;13.36;47.63
21826;BME280;11075;47.944;11.776;2023-07-30T09:03:08;94626.00;;;13.22;46.35
21826;BME280;11075;47.944;11.776;2023-07-30T09:05:35;94630.47;;;13.53;46.83
21826;BME280;11075;47.944;11.776;2023-07-30T09:08:03;94615.34;;;14.89;44.87
21826;BME280;11075;47.944;11.776;2023-07-30T09:10:30;94614.91;;;15.14;45.48
21826;BME280;11075;47.944;11.776;2023-07-30T09:12:57;94618.66;;;15.69;43.21
21826;BME280;11075;47.944;11.776;2023-07-30T09:15:30;94613.06;;;15.55;46.02
21826;BME280;11075;47.944;11.776;2023-07-30T09:18:01;94609.84;;;13.64;47.74
21826;BME280;11075;47.944;11.776;2023-07-30T09:20:39;94634.97;;;13.26;48.35
21826;BME280;11075;47.944;11.776;2023-07-30T09:23:08;94625.06;;;14.18;44.41
21826;BME280;11075;47.944;11.776;2023-07-30T09:25:36;94614.56;;;14.89;41.68
21826;BME280;11075;47.944;11.776;2023-07-30T09:28:05;94620.44;;;14.42;41.96
21826;BME280;11075;47.944;11.776;2023-07-30T09:30:32;94608.31;;;14.32;43.82
21826;BME280;11075;47.944;11.776;2023-07-30T09:33:00;94601.38;;;14.87;44.02
21826;BME280;11075;47.944;11.776;2023-07-30T09:35:27;94612.97;;;15.14;42.66
21826;BME280;11075;47.944;11.776;2023-07-30T09:38:02;94613.16;;;16.47;40.14
21826;BME280;11075;47.944;11.776;2023-07-30T09:40:36;94613.53;;;15.61;41.41
21826;BME280;11075;47.944;11.776;2023-07-30T09:43:05;94597.50;;;15.48;40.31
21826;BME280;11075;47.944;11.776;2023-07-30T09:45:34;94601.47;;;17.01;41.02
21826;BME280;11075;47.944;11.776;2023-07-30T09:48:05;94593.72;;;17.07;39.46
21826;BME280;11075;47.944;11.776;2023-07-30T09:50:36;94623.78;;;17.28;39.47
21826;BME280;11075;47.944;11.776;2023-07-30T09:53:04;94600.34;;;15.63;44.05
21826;BME280;11075;47.944;11.776;2023-07-30T09:55:31;94597.13;;;16.90;40.28
21826;BME280;11075;47.944;11.776;2023-07-30T09:57:58;94611.66;;;13.80;43.00
21826;BME280;11075;47.944;11.776;2023-07-30T10:00:25;94614.16;;;12.92;45.48
21826;BME280;11075;47.944;11.776;2023-07-30T10:02:55;94600.75;;;13.15;44.65
21826;BME280;11075;47.944;11.776;2023-07-30T10:05:26;94605.06;;;15.02;42.77
21826;BME280;11075;47.944;11.776;2023-07-30T10:08:05;94611.41;;;13.65;43.62
21826;BME280;11075;47.944;11.776;2023-07-30T10:10:35;94602.72;;;16.56;38.46
21826;BME280;11075;47.944;11.776;2023-07-30T10:13:06;94603.09;;;16.54;37.81
21826;BME280;11075;47.944;11.776;2023-07-30T10:15:34;94596.97;;;15.73;38.76
21826;BME280;11075;47.944;11.776;2023-07-30T10:18:01;94605.72;;;16.95;38.75
21826;BME280;11075;47.944;11.776;2023-07-30T10:20:31;94606.03;;;16.83;37.46
21826;BME280;11075;47.944;11.776;2023-07-30T10:23:00;94607.22;;;14.89;41.72
21826;BME280;11075;47.944;11.776;2023-07-30T10:25:29;94597.50;;;14.36;45.46
21826;BME280;11075;47.944;11.776;2023-07-30T10:27:58;94606.72;;;15.10;44.22
21826;BME280;11075;47.944;11.776;2023-07-30T10:30:31;94605.75;;;13.97;44.59
21826;BME280;11075;47.944;11.776;2023-07-30T10:33:03;94604.41;;;14.56;44.88
21826;BME280;11075;47.944;11.776;2023-07-30T10:35:44;94595.81;;;15.07;44.73
21826;BME280;11075;47.944;11.776;2023-07-30T10:38:19;94599.63;;;13.77;47.74
21826;BME280;11075;47.944;11.776;2023-07-30T10:41:01;94600.97;;;14.85;45.89
21826;BME280;11075;47.944;11.776;2023-07-30T10:43:54;94597.00;;;14.26;47.90
21826;BME280;11075;47.944;11.776;2023-07-30T10:46:21;94597.09;;;15.16;46.14
21826;BME280;11075;47.944;11.776;2023-07-30T10:48:48;94599.53;;;15.58;44.32
21826;BME280;11075;47.944;11.776;2023-07-30T10:51:17;94593.50;;;15.76;41.22
21826;BME280;11075;47.944;11.776;2023-07-30T10:53:44;94585.53;;;14.63;41.07
21826;BME280;11075;47.944;11.776;2023-07-30T10:56:13;94602.66;;;14.71;41.78
21826;BME280;11075;47.944;11.776;2023-07-30T10:58:40;94583.28;;;15.29;39.24
21826;BME280;11075;47.944;11.776;2023-07-30T11:01:09;94584.75;;;15.93;40.10
21826;BME280;11075;47.944;11.776;2023-07-30T11:03:36;94584.31;;;17.98;36.75
21826;BME280;11075;47.944;11.776;2023-07-30T11:06:05;94576.06;;;16.21;38.77
21826;BME280;11075;47.944;11.776;2023-07-30T11:08:34;94605.53;;;17.32;35.68
21826;BME280;11075;47.944;11.776;2023-07-30T11:11:02;94579.16;;;15.42;38.85
21826;BME280;11075;47.944;11.776;2023-07-30T11:13:29;94580.13;;;15.23;41.94
21826;BME280;11075;47.944;11.776;2023-07-30T11:15:56;94583.13;;;14.32;40.04
21826;BME280;11075;47.944;11.776;2023-07-30T11:18:23;94585.09;;;14.87;40.81
21826;BME280;11075;47.944;11.776;2023-07-30T11:20:49;94588.88;;;14.53;39.32
21826;BME280;11075;47.944;11.776;2023-07-30T11:23:20;94590.53;;;14.12;40.68
21826;BME280;11075;47.944;11.776;2023-07-30T11:25:48;94596.75;;;14.88;41.89
21826;BME280;11075;47.944;11.776;2023-07-30T11:28:36;94598.59;;;15.44;39.43
21826;BME280;11075;47.944;11.776;2023-07-30T11:31:07;94606.91;;;14.68;38.78
21826;BME280;11075;47.944;11.776;2023-07-30T11:33:43;94601.94;;;14.47;41.41
21826;BME280;11075;47.944;11.776;2023-07-30T11:36:14;94601.50;;;13.73;41.49
21826;BME280;11075;47.944;11.776;2023-07-30T11:38:42;94610.50;;;13.81;42.19
21826;BME280;11075;47.944;11.776;2023-07-30T11:41:10;94603.28;;;13.65;44.16
21826;BME280;11075;47.944;11.776;2023-07-30T11:43:44;94613.91;;;13.35;45.00
21826;BME280;11075;47.944;11.776;2023-07-30T11:46:16;94626.88;;;12.91;45.92
21826;BME280;11075;47.944;11.776;2023-07-30T11:48:46;94627.72;;;13.11;48.03
21826;BME280;11075;47.944;11.776;2023-07-30T11:51:34;94620.22;;;12.69;51.19
21826;BME280;11075;47.944;11.776;2023-07-30T11:54:01;94609.13;;;14.62;48.41
21826;BME280;11075;47.944;11.776;2023-07-30T11:56:30;94605.56;;;16.70;45.55
21826;BME280;11075;47.944;11.776;2023-07-30T11:59:07;94605.31;;;15.53;42.95
21826;BME280;11075;47.944;11.776;2023-07-30T12:01:36;94602.03;;;13.82;45.61
21826;BME280;11075;47.944;11.776;2023-07-30T12:04:05;94609.34;;;12.66;47.77
21826;BME280;11075;47.944;11.776;2023-07-30T12:09:12;94603.66;;;11.89;49.97
21826;BME280;11075;47.944;11.776;2023-07-30T12:11:57;94610.06;;;12.31;48.66
21826;BME280;11075;47.944;11.776;2023-07-30T12:14:29;94611.72;;;12.52;48.16
21826;BME280;11075;47.944;11.776;2023-07-30T12:17:08;94617.13;;;12.52;49.06
21826;BME280;11075;47.944;11.776;2023-07-30T12:19:36;94611.03;;;12.23;47.27
21826;BME280;11075;47.944;11.776;2023-07-30T12:22:03;94625.59;;;12.03;48.21
21826;BME280;11075;47.944;11.776;2023-07-30T12:24:30;94607.53;;;14.58;47.15
21826;BME280;11075;47.944;11.776;2023-07-30T12:26:57;94600.31;;;16.00;42.93
21826;BME280;11075;47.944;11.776;2023-07-30T12:29:24;94609.59;;;13.73;45.61
21826;BME280;11075;47.944;11.776;2023-07-30T12:31:52;94609.19;;;13.71;47.11
21826;BME280;11075;47.944;11.776;2023-07-30T12:34:20;94613.25;;;13.23;48.96
21826;BME280;11075;47.944;11.776;2023-07-30T12:36:47;94613.72;;;12.90;46.91
21826;BME280;11075;47.944;11.776;2023-07-30T12:39:14;94615.84;;;12.81;50.83
21826;BME280;11075;47.944;11.776;2023-07-30T12:41:41;94611.13;;;13.13;46.73
21826;BME280;11075;47.944;11.776;2023-07-30T12:44:07;94598.56;;;14.27;41.92
21826;BME280;11075;47.944;11.776;2023-07-30T12:46:36;94609.84;;;13.07;44.14
21826;BME280;11075;47.944;11.776;2023-07-30T12:49:03;94602.03;;;13.01;44.05
21826;BME280;11075;47.944;11.776;2023-07-30T12:51:32;94618.59;;;13.00;42.12
21826;BME280;11075;47.944;11.776;2023-07-30T12:53:59;94618.06;;;12.94;44.60
21826;BME280;11075;47.944;11.776;2023-07-30T12:56:26;94628.19;;;12.62;43.49
21826;BME280;11075;47.944;11.776;2023-07-30T12:58:53;94619.31;;;14.69;39.52